sensor_id;sensor_type;location;lat;lon;timestamp;pressure;altitude;pressure_sealevel;temperature;humidity
58991;BME280;44781;53.444;14.476;2023-02-26T00:00:10;101130.25;;;1.75;77.54
58991;BME280;44781;53.444;14.476;2023-02-26T00:03:25;101136.61;;;1.78;77.34
58991;BME280;44781;53.444;14.476;2023-02-26T00:06:09;101140.74;;;1.80;77.30
58991;BME280;44781;53.444;14.476;2023-02-26T00:08:53;101142.73;;;1.77;77.26
58991;BME280;44781;53.444;14.476;2023-02-26T00:11:22;101146.25;;;1.76;77.11
58991;BME280;44781;53.444;14.476;2023-02-26T00:14:31;101149.50;;;1.73;76.99
58991;BME280;44781;53.444;14.476;2023-02-26T00:17:13;101155.55;;;1.69;76.90
58991;BME280;44781;53.444;14.476;2023-02-26T00:20:25;101160.52;;;1.66;76.98
58991;BME280;44781;53.444;14.476;2023-02-26T00:23:52;101163.69;;;1.65;77.02
58991;BME280;44781;53.444;14.476;2023-02-26T00:26:52;101168.83;;;1.68;77.17
58991;BME280;44781;53.444;14.476;2023-02-26T00:30:08;101176.51;;;1.73;77.23
58991;BME280;44781;53.444;14.476;2023-02-26T00:33:00;101179.13;;;1.78;77.32
58991;BME280;44781;53.444;14.476;2023-02-26T00:35:35;101186.19;;;1.81;77.15
58991;BME280;44781;53.444;14.476;2023-02-26T00:38:03;101184.60;;;1.81;77.09
58991;BME280;44781;53.444;14.476;2023-02-26T00:40:38;101188.96;;;1.81;77.01
58991;BME280;44781;53.444;14.476;2023-02-26T00:43:26;101186.77;;;1.79;76.99
58991;BME280;44781;53.444;14.476;2023-02-26T00:54:20;101199.39;;;1.71;76.70
58991;BME280;44781;53.444;14.476;2023-02-26T00:56:57;101200.23;;;1.66;76.82
58991;BME280;44781;53.444;14.476;2023-02-26T00:59:36;101209.64;;;1.72;76.81
58991;BME280;44781;53.444;14.476;2023-02-26T01:02:07;101210.95;;;1.74;76.72
58991;BME280;44781;53.444;14.476;2023-02-26T01:04:40;101213.40;;;1.79;76.78
58991;BME280;44781;53.444;14.476;2023-02-26T01:07:13;101213.80;;;1.83;76.78
58991;BME280;44781;53.444;14.476;2023-02-26T01:09:43;101219.80;;;1.86;76.67
58991;BME280;44781;53.444;14.476;2023-02-26T01:12:13;101220.13;;;1.87;76.68
58991;BME280;44781;53.444;14.476;2023-02-26T01:14:42;101221.50;;;1.87;76.43
58991;BME280;44781;53.444;14.476;2023-02-26T01:17:25;101222.19;;;1.87;76.30
58991;BME280;44781;53.444;14.476;2023-02-26T01:26:04;101232.31;;;1.82;75.73
58991;BME280;44781;53.444;14.476;2023-02-26T01:28:50;101235.78;;;1.77;75.40
58991;BME280;44781;53.444;14.476;2023-02-26T01:43:34;101247.35;;;1.85;75.50
58991;BME280;44781;53.444;14.476;2023-02-26T01:46:55;101252.98;;;1.89;75.57
58991;BME280;44781;53.444;14.476;2023-02-26T01:49:27;101256.01;;;1.92;75.63
58991;BME280;44781;53.444;14.476;2023-02-26T01:51:58;101264.13;;;1.94;75.52
58991;BME280;44781;53.444;14.476;2023-02-26T01:54:35;101267.23;;;1.95;75.35
58991;BME280;44781;53.444;14.476;2023-02-26T01:57:11;101272.31;;;1.95;75.21
58991;BME280;44781;53.444;14.476;2023-02-26T01:59:53;101275.98;;;1.94;75.17
58991;BME280;44781;53.444;14.476;2023-02-26T02:02:39;101278.83;;;1.93;74.99
58991;BME280;44781;53.444;14.476;2023-02-26T02:06:08;101286.41;;;1.90;74.89
58991;BME280;44781;53.444;14.476;2023-02-26T02:08:51;101293.54;;;1.85;74.77
58991;BME280;44781;53.444;14.476;2023-02-26T02:11:33;101296.68;;;1.84;74.80
58991;BME280;44781;53.444;14.476;2023-02-26T02:34:17;101305.75;;;1.79;74.03
58991;BME280;44781;53.444;14.476;2023-02-26T02:37:24;101305.91;;;1.73;74.04
58991;BME280;44781;53.444;14.476;2023-02-26T02:40:26;101309.32;;;1.70;74.24
58991;BME280;44781;53.444;14.476;2023-02-26T02:43:21;101310.11;;;1.67;74.28
58991;BME280;44781;53.444;14.476;2023-02-26T02:46:12;101315.42;;;1.64;74.26
58991;BME280;44781;53.444;14.476;2023-02-26T02:49:03;101325.70;;;1.64;74.32
58991;BME280;44781;53.444;14.476;2023-02-26T02:51:37;101330.88;;;1.66;74.42
58991;BME280;44781;53.444;14.476;2023-02-26T02:54:35;101334.27;;;1.68;74.68
58991;BME280;44781;53.444;14.476;2023-02-26T02:57:49;101335.38;;;1.73;74.71
58991;BME280;44781;53.444;14.476;2023-02-26T03:00:43;101339.66;;;1.75;74.70
58991;BME280;44781;53.444;14.476;2023-02-26T03:06:14;101352.98;;;1.72;74.54
58991;BME280;44781;53.444;14.476;2023-02-26T03:08:50;101356.41;;;1.68;74.53
58991;BME280;44781;53.444;14.476;2023-02-26T03:11:22;101357.93;;;1.64;74.57
58991;BME280;44781;53.444;14.476;2023-02-26T03:14:08;101355.58;;;1.62;74.56
58991;BME280;44781;53.444;14.476;2023-02-26T03:23:13;101370.55;;;1.55;74.65
58991;BME280;44781;53.444;14.476;2023-02-26T03:26:31;101373.68;;;1.61;74.82
58991;BME280;44781;53.444;14.476;2023-02-26T03:29:26;101376.02;;;1.64;74.71
58991;BME280;44781;53.444;14.476;2023-02-26T03:35:09;101388.90;;;1.65;74.46
58991;BME280;44781;53.444;14.476;2023-02-26T03:37:50;101393.98;;;1.63;74.50
58991;BME280;44781;53.444;14.476;2023-02-26T03:40:56;101402.80;;;1.60;74.49
58991;BME280;44781;53.444;14.476;2023-02-26T03:43:49;101406.91;;;1.55;74.41
58991;BME280;44781;53.444;14.476;2023-02-26T03:46:31;101410.48;;;1.53;74.44
58991;BME280;44781;53.444;14.476;2023-02-26T03:49:19;101414.73;;;1.50;74.43
58991;BME280;44781;53.444;14.476;2023-02-26T03:51:52;101421.80;;;1.47;74.52
58991;BME280;44781;53.444;14.476;2023-02-26T03:54:58;101425.91;;;1.43;74.35
58991;BME280;44781;53.444;14.476;2023-02-26T03:57:46;101431.00;;;1.42;74.44
58991;BME280;44781;53.444;14.476;2023-02-26T04:00:43;101431.98;;;1.44;74.38
58991;BME280;44781;53.444;14.476;2023-02-26T04:04:06;101432.25;;;1.47;74.35
58991;BME280;44781;53.444;14.476;2023-02-26T04:06:24;101433.23;;;1.49;74.37
58991;BME280;44781;53.444;14.476;2023-02-26T04:08:57;101439.59;;;1.52;74.37
58991;BME280;44781;53.444;14.476;2023-02-26T04:11:26;101445.95;;;1.55;74.32
58991;BME280;44781;53.444;14.476;2023-02-26T04:13:54;101459.86;;;1.56;74.31
58991;BME280;44781;53.444;14.476;2023-02-26T04:16:21;101466.66;;;1.56;74.29
58991;BME280;44781;53.444;14.476;2023-02-26T04:18:49;101470.15;;;1.55;74.43
58991;BME280;44781;53.444;14.476;2023-02-26T04:21:20;101473.02;;;1.53;74.90
58991;BME280;44781;53.444;14.476;2023-02-26T04:23:48;101470.09;;;1.51;75.21
58991;BME280;44781;53.444;14.476;2023-02-26T04:26:16;101468.17;;;1.51;75.54
58991;BME280;44781;53.444;14.476;2023-02-26T04:28:51;101467.92;;;1.54;75.79
58991;BME280;44781;53.444;14.476;2023-02-26T04:31:18;101468.60;;;1.55;75.85
58991;BME280;44781;53.444;14.476;2023-02-26T04:33:48;101472.05;;;1.55;75.96
58991;BME280;44781;53.444;14.476;2023-02-26T04:36:18;101479.13;;;1.59;76.12
58991;BME280;44781;53.444;14.476;2023-02-26T04:38:45;101480.97;;;1.62;76.32
58991;BME280;44781;53.444;14.476;2023-02-26T04:41:20;101484.04;;;1.64;76.26
58991;BME280;44781;53.444;14.476;2023-02-26T04:43:54;101490.45;;;1.65;76.35
58991;BME280;44781;53.444;14.476;2023-02-26T04:46:29;101493.80;;;1.63;76.32
58991;BME280;44781;53.444;14.476;2023-02-26T04:49:17;101492.80;;;1.62;76.39
58991;BME280;44781;53.444;14.476;2023-02-26T04:51:57;101485.58;;;1.52;76.21
58991;BME280;44781;53.444;14.476;2023-02-26T04:54:28;101495.00;;;1.57;76.08
58991;BME280;44781;53.444;14.476;2023-02-26T04:57:06;101499.52;;;1.57;76.09
58991;BME280;44781;53.444;14.476;2023-02-26T04:59:34;101500.17;;;1.59;76.09
58991;BME280;44781;53.444;14.476;2023-02-26T05:02:04;101507.41;;;1.63;76.23
58991;BME280;44781;53.444;14.476;2023-02-26T05:04:37;101508.21;;;1.65;76.31
58991;BME280;44781;53.444;14.476;2023-02-26T05:07:04;101506.17;;;1.63;76.36
58991;BME280;44781;53.444;14.476;2023-02-26T05:09:32;101512.77;;;1.65;76.25
58991;BME280;44781;53.444;14.476;2023-02-26T05:11:59;101513.49;;;1.63;76.34
58991;BME280;44781;53.444;14.476;2023-02-26T05:14:29;101511.64;;;1.61;76.26
58991;BME280;44781;53.444;14.476;2023-02-26T05:17:04;101517.01;;;1.55;76.11
58991;BME280;44781;53.444;14.476;2023-02-26T05:19:33;101519.54;;;1.51;76.02
58991;BME280;44781;53.444;14.476;2023-02-26T05:22:01;101524.86;;;1.48;76.02
58991;BME280;44781;53.444;14.476;2023-02-26T05:24:31;101531.84;;;1.47;76.01
58991;BME280;44781;53.444;14.476;2023-02-26T05:26:58;101539.64;;;1.48;76.04
58991;BME280;44781;53.444;14.476;2023-02-26T05:29:25;101543.76;;;1.51;75.86
58991;BME280;44781;53.444;14.476;2023-02-26T05:31:52;101546.01;;;1.51;75.85
58991;BME280;44781;53.444;14.476;2023-02-26T05:34:20;101550.86;;;1.53;75.86
58991;BME280;44781;53.444;14.476;2023-02-26T05:36:47;101552.05;;;1.54;75.92
58991;BME280;44781;53.444;14.476;2023-02-26T05:39:15;101557.76;;;1.55;75.79
58991;BME280;44781;53.444;14.476;2023-02-26T05:41:43;101561.60;;;1.55;75.75
58991;BME280;44781;53.444;14.476;2023-02-26T05:44:12;101566.89;;;1.52;75.70
58991;BME280;44781;53.444;14.476;2023-02-26T05:46:40;101568.16;;;1.50;75.77
58991;BME280;44781;53.444;14.476;2023-02-26T05:49:09;101571.70;;;1.48;75.77
58991;BME280;44781;53.444;14.476;2023-02-26T05:51:36;101572.94;;;1.47;75.67
58991;BME280;44781;53.444;14.476;2023-02-26T05:54:05;101574.54;;;1.46;75.36
58991;BME280;44781;53.444;14.476;2023-02-26T05:56:33;101585.69;;;1.46;75.13
58991;BME280;44781;53.444;14.476;2023-02-26T05:59:02;101585.33;;;1.46;75.01
58991;BME280;44781;53.444;14.476;2023-02-26T06:01:29;101588.08;;;1.48;75.15
58991;BME280;44781;53.444;14.476;2023-02-26T06:03:56;101589.06;;;1.50;74.96
58991;BME280;44781;53.444;14.476;2023-02-26T06:06:24;101594.77;;;1.52;74.79
58991;BME280;44781;53.444;14.476;2023-02-26T06:08:53;101603.64;;;1.53;74.77
58991;BME280;44781;53.444;14.476;2023-02-26T06:11:33;101607.84;;;1.51;74.52
58991;BME280;44781;53.444;14.476;2023-02-26T06:14:00;101610.66;;;1.50;74.34
58991;BME280;44781;53.444;14.476;2023-02-26T06:16:28;101617.36;;;1.47;74.16
58991;BME280;44781;53.444;14.476;2023-02-26T06:18:56;101628.82;;;1.41;73.85
58991;BME280;44781;53.444;14.476;2023-02-26T06:21:23;101632.83;;;1.33;73.60
58991;BME280;44781;53.444;14.476;2023-02-26T06:23:51;101638.69;;;1.28;73.61
58991;BME280;44781;53.444;14.476;2023-02-26T06:26:23;101641.05;;;1.24;73.52
58991;BME280;44781;53.444;14.476;2023-02-26T06:28:52;101646.70;;;1.22;73.44
58991;BME280;44781;53.444;14.476;2023-02-26T06:31:19;101652.84;;;1.18;73.37
58991;BME280;44781;53.444;14.476;2023-02-26T06:33:47;101657.21;;;1.17;73.34
58991;BME280;44781;53.444;14.476;2023-02-26T06:36:15;101658.27;;;1.16;73.22
58991;BME280;44781;53.444;14.476;2023-02-26T06:38:43;101661.41;;;1.16;73.27
58991;BME280;44781;53.444;14.476;2023-02-26T06:41:13;101661.93;;;1.16;73.19
58991;BME280;44781;53.444;14.476;2023-02-26T06:43:41;101660.70;;;1.17;73.42
58991;BME280;44781;53.444;14.476;2023-02-26T06:46:08;101667.27;;;1.19;73.43
58991;BME280;44781;53.444;14.476;2023-02-26T06:48:36;101672.13;;;1.20;73.53
58991;BME280;44781;53.444;14.476;2023-02-26T06:51:04;101674.55;;;1.21;73.60
58991;BME280;44781;53.444;14.476;2023-02-26T06:53:33;101679.60;;;1.21;73.52
58991;BME280;44781;53.444;14.476;2023-02-26T06:56:00;101690.77;;;1.19;73.58
58991;BME280;44781;53.444;14.476;2023-02-26T06:58:29;101693.23;;;1.18;73.53
58991;BME280;44781;53.444;14.476;2023-02-26T07:00:59;101686.90;;;1.13;73.56
58991;BME280;44781;53.444;14.476;2023-02-26T07:03:27;101695.38;;;1.15;73.51
58991;BME280;44781;53.444;14.476;2023-02-26T07:06:01;101697.52;;;1.13;73.51
58991;BME280;44781;53.444;14.476;2023-02-26T07:08:29;101699.13;;;1.11;73.48
58991;BME280;44781;53.444;14.476;2023-02-26T07:10:57;101703.98;;;1.11;73.39
58991;BME280;44781;53.444;14.476;2023-02-26T07:13:24;101708.18;;;1.11;73.11
58991;BME280;44781;53.444;14.476;2023-02-26T07:15:54;101714.25;;;1.12;72.97
58991;BME280;44781;53.444;14.476;2023-02-26T07:18:21;101716.81;;;1.14;73.08
58991;BME280;44781;53.444;14.476;2023-02-26T07:20:49;101722.87;;;1.16;73.20
58991;BME280;44781;53.444;14.476;2023-02-26T07:23:16;101725.98;;;1.17;73.15
58991;BME280;44781;53.444;14.476;2023-02-26T07:25:43;101731.86;;;1.19;72.94
58991;BME280;44781;53.444;14.476;2023-02-26T07:28:11;101734.66;;;1.18;72.83
58991;BME280;44781;53.444;14.476;2023-02-26T07:30:41;101736.30;;;1.15;72.80
58991;BME280;44781;53.444;14.476;2023-02-26T07:33:11;101739.48;;;1.13;72.76
58991;BME280;44781;53.444;14.476;2023-02-26T07:35:40;101742.48;;;1.10;72.79
58991;BME280;44781;53.444;14.476;2023-02-26T07:38:08;101745.65;;;1.09;72.77
58991;BME280;44781;53.444;14.476;2023-02-26T07:40:36;101750.05;;;1.06;72.68
58991;BME280;44781;53.444;14.476;2023-02-26T07:43:04;101756.52;;;1.05;72.62
58991;BME280;44781;53.444;14.476;2023-02-26T07:45:31;101760.70;;;1.05;72.53
58991;BME280;44781;53.444;14.476;2023-02-26T07:47:58;101765.05;;;1.05;72.51
58991;BME280;44781;53.444;14.476;2023-02-26T07:50:26;101765.58;;;1.05;72.45
58991;BME280;44781;53.444;14.476;2023-02-26T07:52:55;101765.35;;;1.08;72.41
58991;BME280;44781;53.444;14.476;2023-02-26T07:55:23;101770.09;;;1.14;72.48
58991;BME280;44781;53.444;14.476;2023-02-26T07:57:51;101774.98;;;1.21;72.45
58991;BME280;44781;53.444;14.476;2023-02-26T08:00:18;101776.77;;;1.27;72.48
58991;BME280;44781;53.444;14.476;2023-02-26T08:02:45;101779.25;;;1.33;72.42
58991;BME280;44781;53.444;14.476;2023-02-26T08:05:13;101782.98;;;1.38;72.32
58991;BME280;44781;53.444;14.476;2023-02-26T08:07:43;101785.16;;;1.42;72.14
58991;BME280;44781;53.444;14.476;2023-02-26T08:10:10;101789.23;;;1.47;72.15
58991;BME280;44781;53.444;14.476;2023-02-26T08:12:41;101792.65;;;1.50;71.64
58991;BME280;44781;53.444;14.476;2023-02-26T08:15:08;101797.48;;;1.51;71.54
58991;BME280;44781;53.444;14.476;2023-02-26T08:17:38;101800.08;;;1.53;71.42
58991;BME280;44781;53.444;14.476;2023-02-26T08:20:06;101804.20;;;1.55;71.51
58991;BME280;44781;53.444;14.476;2023-02-26T08:22:34;101804.15;;;1.57;71.29
58991;BME280;44781;53.444;14.476;2023-02-26T08:25:01;101808.45;;;1.61;71.22
58991;BME280;44781;53.444;14.476;2023-02-26T08:27:29;101815.88;;;1.63;70.92
58991;BME280;44781;53.444;14.476;2023-02-26T08:29:56;101820.31;;;1.67;71.10
58991;BME280;44781;53.444;14.476;2023-02-26T08:32:24;101826.81;;;1.73;71.23
58991;BME280;44781;53.444;14.476;2023-02-26T08:34:55;101828.91;;;1.80;71.05
58991;BME280;44781;53.444;14.476;2023-02-26T08:37:23;101830.27;;;1.90;71.13
58991;BME280;44781;53.444;14.476;2023-02-26T08:39:53;101836.98;;;2.01;70.74
58991;BME280;44781;53.444;14.476;2023-02-26T08:42:25;101834.46;;;2.12;70.44
58991;BME280;44781;53.444;14.476;2023-02-26T08:45:16;101837.86;;;2.23;70.26
58991;BME280;44781;53.444;14.476;2023-02-26T08:48:43;101845.39;;;2.36;69.91
58991;BME280;44781;53.444;14.476;2023-02-26T08:51:20;101851.98;;;2.45;69.11
58991;BME280;44781;53.444;14.476;2023-02-26T08:53:49;101854.33;;;2.49;68.84
58991;BME280;44781;53.444;14.476;2023-02-26T08:56:42;101856.14;;;2.53;68.64
58991;BME280;44781;53.444;14.476;2023-02-26T08:59:41;101862.52;;;2.57;68.28
58991;BME280;44781;53.444;14.476;2023-02-26T09:02:12;101853.73;;;2.52;68.00
58991;BME280;44781;53.444;14.476;2023-02-26T09:04:42;101869.87;;;2.62;67.78
58991;BME280;44781;53.444;14.476;2023-02-26T09:07:16;101869.64;;;2.65;67.81
58991;BME280;44781;53.444;14.476;2023-02-26T09:10:17;101873.95;;;2.67;67.60
58991;BME280;44781;53.444;14.476;2023-02-26T09:12:52;101877.02;;;2.69;67.30
58991;BME280;44781;53.444;14.476;2023-02-26T09:15:48;101878.83;;;2.73;67.23
58991;BME280;44781;53.444;14.476;2023-02-26T09:18:15;101887.26;;;2.78;66.89
58991;BME280;44781;53.444;14.476;2023-02-26T09:20:47;101892.61;;;2.81;66.59
58991;BME280;44781;53.444;14.476;2023-02-26T09:23:21;101899.86;;;2.84;66.46
58991;BME280;44781;53.444;14.476;2023-02-26T09:25:58;101905.90;;;2.87;66.35
58991;BME280;44781;53.444;14.476;2023-02-26T09:28:30;101909.13;;;2.90;66.42
58991;BME280;44781;53.444;14.476;2023-02-26T09:30:58;101912.48;;;2.95;66.08
58991;BME280;44781;53.444;14.476;2023-02-26T09:33:45;101913.60;;;3.00;65.84
58991;BME280;44781;53.444;14.476;2023-02-26T09:36:17;101918.20;;;3.04;65.73
58991;BME280;44781;53.444;14.476;2023-02-26T09:38:47;101924.52;;;3.09;65.74
58991;BME280;44781;53.444;14.476;2023-02-26T09:41:22;101924.38;;;3.14;65.80
58991;BME280;44781;53.444;14.476;2023-02-26T09:44:11;101923.67;;;3.21;65.74
58991;BME280;44781;53.444;14.476;2023-02-26T09:52:32;101943.16;;;3.37;64.58
58991;BME280;44781;53.444;14.476;2023-02-26T09:55:11;101953.10;;;3.38;63.74
58991;BME280;44781;53.444;14.476;2023-02-26T09:57:43;101955.17;;;3.39;63.53
58991;BME280;44781;53.444;14.476;2023-02-26T10:00:28;101959.86;;;3.40;63.30
58991;BME280;44781;53.444;14.476;2023-02-26T10:06:12;101968.74;;;3.41;62.95
58991;BME280;44781;53.444;14.476;2023-02-26T10:11:59;101976.09;;;3.41;62.43
58991;BME280;44781;53.444;14.476;2023-02-26T10:14:59;101978.54;;;3.40;62.04
58991;BME280;44781;53.444;14.476;2023-02-26T10:18:11;101984.67;;;3.40;61.73
58991;BME280;44781;53.444;14.476;2023-02-26T10:23:43;101987.33;;;3.39;61.33
58991;BME280;44781;53.444;14.476;2023-02-26T10:26:22;101987.11;;;3.40;61.09
58991;BME280;44781;53.444;14.476;2023-02-26T10:37:17;102005.48;;;3.58;61.18
58991;BME280;44781;53.444;14.476;2023-02-26T10:40:03;102011.19;;;3.61;60.83
58991;BME280;44781;53.444;14.476;2023-02-26T10:51:43;102023.41;;;3.74;60.08
58991;BME280;44781;53.444;14.476;2023-02-26T10:58:26;102032.05;;;3.72;59.27
58991;BME280;44781;53.444;14.476;2023-02-26T11:01:40;102031.21;;;3.70;59.17
58991;BME280;44781;53.444;14.476;2023-02-26T11:04:59;102039.30;;;3.69;58.63
58991;BME280;44781;53.444;14.476;2023-02-26T11:08:34;102041.55;;;3.69;58.60
58991;BME280;44781;53.444;14.476;2023-02-26T11:11:07;102039.70;;;3.72;58.67
58991;BME280;44781;53.444;14.476;2023-02-26T11:13:51;102041.66;;;3.78;58.57
58991;BME280;44781;53.444;14.476;2023-02-26T11:16:22;102034.20;;;3.82;58.19
58991;BME280;44781;53.444;14.476;2023-02-26T11:18:54;102042.13;;;3.86;58.11
58991;BME280;44781;53.444;14.476;2023-02-26T11:21:35;102043.82;;;3.88;57.67
58991;BME280;44781;53.444;14.476;2023-02-26T11:24:08;102045.52;;;3.90;57.55
58991;BME280;44781;53.444;14.476;2023-02-26T11:26:42;102050.56;;;3.91;57.32
58991;BME280;44781;53.444;14.476;2023-02-26T11:29:21;102052.48;;;3.91;57.15
58991;BME280;44781;53.444;14.476;2023-02-26T11:31:53;102051.73;;;3.93;57.01
58991;BME280;44781;53.444;14.476;2023-02-26T11:34:35;102051.98;;;3.97;57.10
58991;BME280;44781;53.444;14.476;2023-02-26T11:37:05;102047.09;;;4.03;56.93
58991;BME280;44781;53.444;14.476;2023-02-26T11:39:35;102047.45;;;4.09;56.63
58991;BME280;44781;53.444;14.476;2023-02-26T11:42:09;102049.42;;;4.13;56.02
58991;BME280;44781;53.444;14.476;2023-02-26T11:44:44;102055.27;;;4.17;55.92
58991;BME280;44781;53.444;14.476;2023-02-26T11:47:21;102058.33;;;4.20;55.83
58991;BME280;44781;53.444;14.476;2023-02-26T11:50:03;102058.20;;;4.18;55.32
58991;BME280;44781;53.444;14.476;2023-02-26T11:52:43;102059.55;;;4.14;54.98
58991;BME280;44781;53.444;14.476;2023-02-26T11:55:21;102056.15;;;4.10;54.79
58991;BME280;44781;53.444;14.476;2023-02-26T11:57:58;102058.95;;;4.10;54.91
58991;BME280;44781;53.444;14.476;2023-02-26T12:00:32;102059.14;;;4.10;54.59
58991;BME280;44781;53.444;14.476;2023-02-26T12:03:21;102065.86;;;4.13;54.25
58991;BME280;44781;53.444;14.476;2023-02-26T12:10:25;102067.38;;;4.27;54.25
58991;BME280;44781;53.444;14.476;2023-02-26T12:22:39;102077.50;;;4.34;53.08
58991;BME280;44781;53.444;14.476;2023-02-26T13:20:34;102125.42;;;4.29;53.05
58991;BME280;44781;53.444;14.476;2023-02-26T13:23:36;102117.27;;;4.32;53.06
58991;BME280;44781;53.444;14.476;2023-02-26T13:31:17;102118.45;;;4.59;53.14
58991;BME280;44781;53.444;14.476;2023-02-26T14:04:51;102130.68;;;4.71;51.10
58991;BME280;44781;53.444;14.476;2023-02-26T14:07:46;102127.95;;;4.69;51.13
58991;BME280;44781;53.444;14.476;2023-02-26T14:11:26;102129.34;;;4.69;51.30
58991;BME280;44781;53.444;14.476;2023-02-26T14:34:22;102140.55;;;4.87;51.22
58991;BME280;44781;53.444;14.476;2023-02-26T14:37:11;102142.02;;;4.84;51.35
58991;BME280;44781;53.444;14.476;2023-02-26T14:40:22;102148.11;;;4.80;51.60
58991;BME280;44781;53.444;14.476;2023-02-26T14:42:59;102148.40;;;4.77;51.67
58991;BME280;44781;53.444;14.476;2023-02-26T14:45:31;102154.24;;;4.74;51.89
58991;BME280;44781;53.444;14.476;2023-02-26T14:48:07;102158.18;;;4.70;51.96
58991;BME280;44781;53.444;14.476;2023-02-26T14:51:18;102162.17;;;4.66;52.01
58991;BME280;44781;53.444;14.476;2023-02-26T14:56:42;102171.69;;;4.58;52.63
58991;BME280;44781;53.444;14.476;2023-02-26T15:02:14;102175.52;;;4.45;52.88
58991;BME280;44781;53.444;14.476;2023-02-26T15:10:24;102181.02;;;4.24;53.76
58991;BME280;44781;53.444;14.476;2023-02-26T15:13:18;102187.02;;;4.14;54.05
58991;BME280;44781;53.444;14.476;2023-02-26T15:26:07;102196.59;;;4.17;55.12
58991;BME280;44781;53.444;14.476;2023-02-26T15:28:42;102190.16;;;4.22;55.16
58991;BME280;44781;53.444;14.476;2023-02-26T15:31:10;102187.45;;;4.25;55.20
58991;BME280;44781;53.444;14.476;2023-02-26T15:33:40;102198.77;;;4.27;55.38
58991;BME280;44781;53.444;14.476;2023-02-26T15:36:15;102200.31;;;4.28;55.59
58991;BME280;44781;53.444;14.476;2023-02-26T15:38:57;102205.35;;;4.30;55.75
58991;BME280;44781;53.444;14.476;2023-02-26T15:41:37;102206.12;;;4.34;55.92
58991;BME280;44781;53.444;14.476;2023-02-26T15:44:09;102211.55;;;4.40;55.91
58991;BME280;44781;53.444;14.476;2023-02-26T15:46:44;102209.45;;;4.46;55.84
58991;BME280;44781;53.444;14.476;2023-02-26T15:49:25;102212.48;;;4.51;55.37
58991;BME280;44781;53.444;14.476;2023-02-26T15:51:57;102217.31;;;4.53;55.03
58991;BME280;44781;53.444;14.476;2023-02-26T15:54:35;102219.11;;;4.52;54.44
58991;BME280;44781;53.444;14.476;2023-02-26T15:57:09;102221.99;;;4.49;54.40
58991;BME280;44781;53.444;14.476;2023-02-26T15:59:43;102227.95;;;4.42;54.62
58991;BME280;44781;53.444;14.476;2023-02-26T16:02:17;102231.30;;;4.34;54.80
58991;BME280;44781;53.444;14.476;2023-02-26T16:04:45;102234.23;;;4.29;55.13
58991;BME280;44781;53.444;14.476;2023-02-26T16:07:15;102238.15;;;4.26;55.33
58991;BME280;44781;53.444;14.476;2023-02-26T16:09:49;102233.31;;;4.24;55.41
58991;BME280;44781;53.444;14.476;2023-02-26T16:12:35;102234.23;;;4.22;55.42
58991;BME280;44781;53.444;14.476;2023-02-26T16:15:10;102240.73;;;4.21;55.57
58991;BME280;44781;53.444;14.476;2023-02-26T16:17:47;102243.02;;;4.21;55.55
58991;BME280;44781;53.444;14.476;2023-02-26T16:20:36;102244.09;;;4.20;55.62
58991;BME280;44781;53.444;14.476;2023-02-26T16:23:19;102243.44;;;4.18;55.72
58991;BME280;44781;53.444;14.476;2023-02-26T16:26:07;102250.77;;;4.19;55.67
58991;BME280;44781;53.444;14.476;2023-02-26T16:28:40;102257.02;;;4.13;55.53
58991;BME280;44781;53.444;14.476;2023-02-26T16:31:18;102258.41;;;4.07;55.62
58991;BME280;44781;53.444;14.476;2023-02-26T16:33:59;102261.33;;;4.02;55.74
58991;BME280;44781;53.444;14.476;2023-02-26T16:36:36;102266.34;;;3.98;55.79
58991;BME280;44781;53.444;14.476;2023-02-26T16:41:39;102277.09;;;3.87;55.87
58991;BME280;44781;53.444;14.476;2023-02-26T16:46:58;102285.87;;;3.70;55.91
58991;BME280;44781;53.444;14.476;2023-02-26T16:49:32;102287.60;;;3.63;56.12
58991;BME280;44781;53.444;14.476;2023-02-26T16:52:01;102288.61;;;3.57;56.29
58991;BME280;44781;53.444;14.476;2023-02-26T16:54:41;102298.03;;;3.49;56.42
58991;BME280;44781;53.444;14.476;2023-02-26T16:57:18;102300.27;;;3.43;56.57
58991;BME280;44781;53.444;14.476;2023-02-26T16:59:52;102305.96;;;3.38;56.69
58991;BME280;44781;53.444;14.476;2023-02-26T17:02:25;102303.51;;;3.31;56.90
58991;BME280;44781;53.444;14.476;2023-02-26T17:04:58;102313.67;;;3.29;57.04
58991;BME280;44781;53.444;14.476;2023-02-26T17:07:34;102317.61;;;3.25;57.02
58991;BME280;44781;53.444;14.476;2023-02-26T17:10:17;102320.50;;;3.20;57.13
58991;BME280;44781;53.444;14.476;2023-02-26T17:12:51;102324.83;;;3.13;57.11
58991;BME280;44781;53.444;14.476;2023-02-26T17:15:30;102318.83;;;3.06;57.12
58991;BME280;44781;53.444;14.476;2023-02-26T17:17:58;102322.11;;;3.00;57.25
58991;BME280;44781;53.444;14.476;2023-02-26T17:20:27;102324.66;;;2.95;57.30
58991;BME280;44781;53.444;14.476;2023-02-26T17:22:57;102326.30;;;2.91;57.46
58991;BME280;44781;53.444;14.476;2023-02-26T17:25:26;102327.45;;;2.86;57.67
58991;BME280;44781;53.444;14.476;2023-02-26T17:27:56;102331.73;;;2.81;57.62
58991;BME280;44781;53.444;14.476;2023-02-26T17:30:24;102331.27;;;2.77;57.70
58991;BME280;44781;53.444;14.476;2023-02-26T17:32:55;102335.70;;;2.73;57.82
58991;BME280;44781;53.444;14.476;2023-02-26T17:35:23;102340.30;;;2.70;57.90
58991;BME280;44781;53.444;14.476;2023-02-26T17:37:50;102336.52;;;2.67;58.08
58991;BME280;44781;53.444;14.476;2023-02-26T17:40:20;102338.86;;;2.62;58.07
58991;BME280;44781;53.444;14.476;2023-02-26T17:42:49;102341.52;;;2.60;58.12
58991;BME280;44781;53.444;14.476;2023-02-26T17:45:17;102342.95;;;2.59;58.38
58991;BME280;44781;53.444;14.476;2023-02-26T17:47:44;102345.61;;;2.56;58.43
58991;BME280;44781;53.444;14.476;2023-02-26T17:52:48;102350.33;;;2.45;58.56